createdAt,value
2022-08-23T00:00:17.173Z,27.55
2022-08-23T00:02:45.747Z,31.67
2022-08-23T00:05:49.213Z,26.27
2022-08-23T00:08:18.413Z,28.90
2022-08-23T00:10:45.668Z,32.05
2022-08-23T00:13:20.634Z,19.30
2022-08-23T00:15:48.887Z,12.43
2022-08-23T00:18:18.796Z,9.55
2022-08-23T00:20:45.994Z,8.38
2022-08-23T00:23:13.129Z,6.15
2022-08-23T00:25:42.109Z,5.28
2022-08-23T00:28:14.674Z,6.05
2022-08-23T00:30:54.187Z,7.07
2022-08-23T00:33:22.155Z,13.85
2022-08-23T00:35:49.269Z,18.45
2022-08-23T00:38:34.139Z,8.45
2022-08-23T00:41:11.159Z,7.00
2022-08-23T00:44:01.433Z,7.30
2022-08-23T00:47:11.089Z,6.80
2022-08-23T00:49:40.226Z,7.63
2022-08-23T00:52:28.870Z,8.57
2022-08-23T00:54:57.910Z,9.77
2022-08-23T00:57:25.610Z,11.70
2022-08-23T00:59:52.640Z,11.65
2022-08-23T01:02:20.759Z,13.63
2022-08-23T01:04:55.896Z,15.45
2022-08-23T01:07:40.082Z,15.77
2022-08-23T01:10:18.136Z,14.45
2022-08-23T01:12:57.518Z,12.70
2022-08-23T01:16:17.224Z,14.13
2022-08-23T01:18:48.172Z,15.82
2022-08-23T01:21:48.160Z,80.82
2022-08-23T01:24:36.751Z,83.20
2022-08-23T01:27:15.518Z,29.90
2022-08-23T01:29:43.682Z,15.70
2022-08-23T01:32:13.150Z,14.25
2022-08-23T01:34:44.772Z,11.80
2022-08-23T01:37:24.826Z,10.65
2022-08-23T01:39:53.139Z,17.17
2022-08-23T01:42:20.696Z,14.13
2022-08-23T01:44:52.035Z,12.98
2022-08-23T01:47:21.172Z,12.52
2022-08-23T01:49:57.532Z,25.00
2022-08-23T01:52:24.598Z,23.75
2022-08-23T01:54:52.788Z,28.85
2022-08-23T01:57:22.214Z,24.92
2022-08-23T01:59:52.421Z,23.65
2022-08-23T02:02:20.049Z,44.08
2022-08-23T02:04:48.141Z,37.00
2022-08-23T02:07:16.280Z,37.08
2022-08-23T02:09:51.413Z,34.80
2022-08-23T02:12:18.485Z,36.65
2022-08-23T02:14:45.611Z,32.05
2022-08-23T02:17:13.927Z,28.80
2022-08-23T02:19:40.920Z,34.50
2022-08-23T02:22:08.900Z,31.88
2022-08-23T02:24:45.781Z,34.00
2022-08-23T02:27:16.482Z,32.45
2022-08-23T02:29:47.345Z,36.30
2022-08-23T02:32:28.608Z,35.70
2022-08-23T02:35:04.798Z,33.90
2022-08-23T02:37:42.669Z,34.72
2022-08-23T02:40:17.850Z,34.85
2022-08-23T02:42:52.435Z,35.70
2022-08-23T02:45:22.631Z,34.00
2022-08-23T02:47:49.867Z,34.90
2022-08-23T02:50:21.765Z,32.83
2022-08-23T02:52:51.139Z,39.70
2022-08-23T02:55:18.261Z,35.42
2022-08-23T02:57:45.367Z,33.25
2022-08-23T03:00:17.557Z,34.50
2022-08-23T03:02:44.948Z,35.28
2022-08-23T03:05:16.951Z,33.63
2022-08-23T03:08:08.628Z,33.33
2022-08-23T03:10:35.832Z,34.17
2022-08-23T03:13:05.144Z,38.95
2022-08-23T03:15:32.393Z,37.78
2022-08-23T03:17:59.641Z,37.25
2022-08-23T03:20:40.628Z,47.05
2022-08-23T03:23:08.876Z,42.70
2022-08-23T03:25:38.199Z,44.88
2022-08-23T03:28:13.448Z,45.53
2022-08-23T03:30:40.634Z,38.88
2022-08-23T03:33:07.685Z,36.65
2022-08-23T03:35:35.415Z,40.53
2022-08-23T03:38:40.025Z,36.42
2022-08-23T03:43:45.312Z,32.70
2022-08-23T03:46:33.446Z,29.45
2022-08-23T03:49:02.900Z,33.22
2022-08-23T03:51:32.241Z,29.17
2022-08-23T03:54:09.590Z,29.23
2022-08-23T03:56:49.911Z,47.58
2022-08-23T03:59:17.999Z,29.52
2022-08-23T04:01:45.261Z,28.70
2022-08-23T04:04:13.384Z,29.70
2022-08-23T04:06:40.489Z,28.95
2022-08-23T04:09:07.660Z,30.73
2022-08-23T04:11:38.187Z,30.95
2022-08-23T04:14:07.954Z,31.15
2022-08-23T04:16:38.199Z,30.52
2022-08-23T04:19:06.723Z,30.88
2022-08-23T04:21:52.528Z,29.98
2022-08-23T04:24:20.748Z,31.02
2022-08-23T04:26:49.609Z,30.50
2022-08-23T04:29:24.816Z,30.30
2022-08-23T04:32:12.118Z,30.92
2022-08-23T04:34:51.540Z,32.08
2022-08-23T04:37:18.876Z,31.77
2022-08-23T04:40:04.804Z,33.70
2022-08-23T04:42:43.396Z,31.27
2022-08-23T04:45:14.674Z,29.70
2022-08-23T04:47:46.951Z,30.80
2022-08-23T04:50:14.973Z,29.05
2022-08-23T04:52:57.421Z,30.98
2022-08-23T04:55:25.633Z,32.47
2022-08-23T04:57:52.717Z,32.55
2022-08-23T05:00:21.583Z,33.25
2022-08-23T05:02:57.012Z,31.23
2022-08-23T05:05:25.141Z,33.03
2022-08-23T05:07:55.044Z,33.30
2022-08-23T05:10:29.367Z,33.78
2022-08-23T05:12:56.352Z,34.63
2022-08-23T05:15:30.247Z,33.60
2022-08-23T05:18:04.301Z,35.53
2022-08-23T05:20:41.665Z,35.55
2022-08-23T05:23:08.865Z,35.85
2022-08-23T05:25:52.455Z,36.20
2022-08-23T05:28:29.715Z,37.03
2022-08-23T05:31:02.233Z,37.03
2022-08-23T05:33:31.100Z,35.45
2022-08-23T05:36:05.674Z,34.50
2022-08-23T05:38:55.327Z,35.50
2022-08-23T05:41:22.579Z,39.45
2022-08-23T05:44:01.457Z,41.92
2022-08-23T05:46:31.869Z,40.10
2022-08-23T05:49:01.175Z,43.80
2022-08-23T05:51:31.989Z,40.28
2022-08-23T05:54:03.164Z,43.33
2022-08-23T05:56:39.261Z,46.78
2022-08-23T05:59:16.147Z,46.88
2022-08-23T06:01:50.311Z,47.70
2022-08-23T06:04:24.341Z,47.55
2022-08-23T06:06:51.452Z,41.08
2022-08-23T06:09:32.076Z,45.90
2022-08-23T06:11:59.806Z,46.00
2022-08-23T06:14:29.077Z,41.15
2022-08-23T06:16:57.358Z,43.85
2022-08-23T06:19:48.660Z,39.10
2022-08-23T06:22:19.015Z,38.90
2022-08-23T06:24:47.383Z,40.03
2022-08-23T06:27:14.761Z,40.17
2022-08-23T06:29:42.442Z,41.22
2022-08-23T06:32:09.514Z,37.58
2022-08-23T06:34:39.069Z,40.47
2022-08-23T06:37:15.268Z,35.15
2022-08-23T06:39:43.346Z,38.85
2022-08-23T06:42:38.270Z,36.33
2022-08-23T06:45:06.733Z,38.65
2022-08-23T06:47:35.038Z,36.28
2022-08-23T06:50:04.316Z,38.83
2022-08-23T06:52:31.686Z,37.70
2022-08-23T06:54:59.208Z,36.05
2022-08-23T06:57:32.974Z,40.45
2022-08-23T07:02:29.948Z,38.80
2022-08-23T07:04:59.336Z,43.72
2022-08-23T07:07:41.316Z,40.55
2022-08-23T07:10:15.734Z,39.65
2022-08-23T07:12:44.553Z,39.97
2022-08-23T07:15:17.523Z,33.67
2022-08-23T07:17:56.992Z,32.15
2022-08-23T07:20:32.193Z,35.03
2022-08-23T07:23:01.800Z,33.38
2022-08-23T07:25:30.330Z,31.98
2022-08-23T07:27:59.119Z,33.58
2022-08-23T07:30:26.300Z,31.50
2022-08-23T07:32:53.435Z,30.30
2022-08-23T07:35:24.705Z,29.27
2022-08-23T07:37:51.934Z,31.08
2022-08-23T07:40:27.655Z,31.23
2022-08-23T07:42:58.153Z,32.08
2022-08-23T07:45:25.242Z,30.48
2022-08-23T07:47:52.450Z,34.63
2022-08-23T07:50:20.795Z,32.67
2022-08-23T07:52:47.937Z,31.08
2022-08-23T07:55:15.686Z,36.08
2022-08-23T07:57:43.903Z,31.48
2022-08-23T08:00:11.581Z,33.75
2022-08-23T08:02:38.629Z,34.00
2022-08-23T08:05:08.415Z,31.77
2022-08-23T08:07:37.723Z,31.05
2022-08-23T08:10:06.269Z,33.45
2022-08-23T08:12:36.917Z,29.98
2022-08-23T08:15:05.201Z,30.52
2022-08-23T08:17:32.340Z,30.45
2022-08-23T08:20:11.677Z,29.15
2022-08-23T08:22:38.859Z,31.88
2022-08-23T08:25:09.557Z,28.67
2022-08-23T08:27:36.814Z,27.63
2022-08-23T08:30:09.497Z,28.00
2022-08-23T08:32:37.959Z,27.77
2022-08-23T08:35:10.847Z,27.13
2022-08-23T08:37:41.014Z,27.65
2022-08-23T08:40:09.719Z,26.88
2022-08-23T08:42:59.765Z,29.95
2022-08-23T08:45:38.703Z,43.05
2022-08-23T08:48:15.682Z,86.47
2022-08-23T08:50:52.700Z,33.17
2022-08-23T08:53:29.543Z,45.53
2022-08-23T08:56:03.174Z,82.35
2022-08-23T08:58:52.900Z,46.95
2022-08-23T09:01:44.293Z,27.80
2022-08-23T09:04:11.830Z,62.05
2022-08-23T09:07:20.985Z,52.97
2022-08-23T09:09:51.146Z,31.77
2022-08-23T09:12:59.576Z,25.65
2022-08-23T09:15:43.661Z,30.52
2022-08-23T09:20:52.371Z,23.88
2022-08-23T09:23:27.776Z,22.48
2022-08-23T09:26:03.975Z,22.08
2022-08-23T09:28:36.680Z,29.33
2022-08-23T09:31:08.176Z,22.75
2022-08-23T09:33:49.548Z,22.70
2022-08-23T09:36:29.261Z,33.55
2022-08-23T09:39:06.555Z,35.53
2022-08-23T09:41:42.536Z,22.15
2022-08-23T09:44:29.990Z,21.30
2022-08-23T09:47:16.092Z,21.88
2022-08-23T09:49:48.904Z,21.10
2022-08-23T09:52:40.681Z,21.10
2022-08-23T09:55:28.303Z,19.30
2022-08-23T09:58:17.761Z,37.17
2022-08-23T10:01:07.661Z,22.35
2022-08-23T10:03:36.873Z,22.33
2022-08-23T10:06:06.269Z,19.48
2022-08-23T10:08:43.005Z,16.58
2022-08-23T10:11:26.098Z,17.10
2022-08-23T10:13:56.866Z,19.45
2022-08-23T10:16:47.333Z,20.38
2022-08-23T10:19:47.737Z,18.88
2022-08-23T10:22:22.949Z,19.00
2022-08-23T10:24:53.939Z,14.73
2022-08-23T10:27:52.676Z,14.85
2022-08-23T10:30:28.099Z,18.35
2022-08-23T10:32:57.898Z,13.90
2022-08-23T10:35:50.207Z,14.00
2022-08-23T10:38:19.927Z,12.52
2022-08-23T10:41:26.781Z,12.23
2022-08-23T10:44:21.056Z,11.95
2022-08-23T10:47:27.925Z,14.30
2022-08-23T10:50:07.616Z,11.80
2022-08-23T10:52:45.479Z,13.15
2022-08-23T10:55:36.863Z,12.98
2022-08-23T10:58:08.929Z,12.15
2022-08-23T11:00:42.717Z,11.00
2022-08-23T11:06:21.605Z,10.95
2022-08-23T11:09:04.081Z,8.73
2022-08-23T11:11:55.517Z,9.07
2022-08-23T11:14:41.072Z,9.23
2022-08-23T11:17:49.934Z,13.02
2022-08-23T11:20:51.158Z,12.70
2022-08-23T11:23:41.120Z,12.63
2022-08-23T11:26:36.394Z,13.25
2022-08-23T11:29:07.254Z,14.40
2022-08-23T11:31:45.225Z,19.70
2022-08-23T11:34:29.866Z,17.85
2022-08-23T11:37:18.859Z,13.57
2022-08-23T11:39:58.313Z,13.25
2022-08-23T11:42:52.875Z,15.43
2022-08-23T11:45:42.162Z,15.43
2022-08-23T11:48:43.411Z,13.77
2022-08-23T11:51:37.724Z,13.15
2022-08-23T11:54:39.734Z,12.68
2022-08-23T11:57:39.137Z,11.77
2022-08-23T12:00:29.485Z,12.02
2022-08-23T12:03:20.416Z,12.63
2022-08-23T12:05:55.456Z,13.65
2022-08-23T12:08:43.667Z,14.57
2022-08-23T12:11:19.817Z,13.50
2022-08-23T12:13:51.823Z,15.43
2022-08-23T12:16:23.015Z,14.90
2022-08-23T12:18:54.632Z,16.38
2022-08-23T12:22:00.387Z,16.13
2022-08-23T12:24:47.123Z,16.48
2022-08-23T12:27:28.216Z,17.65
2022-08-23T12:30:11.172Z,13.98
2022-08-23T12:33:09.164Z,15.27
2022-08-23T12:35:46.211Z,17.48
2022-08-23T12:38:47.796Z,19.77
2022-08-23T12:41:29.650Z,12.98
2022-08-23T12:44:09.822Z,19.85
2022-08-23T12:46:44.988Z,15.68
2022-08-23T12:49:46.691Z,16.63
2022-08-23T12:52:15.824Z,19.00
2022-08-23T12:54:46.643Z,21.10
2022-08-23T12:57:19.744Z,17.23
2022-08-23T13:00:17.142Z,17.90
2022-08-23T13:03:04.215Z,15.73
2022-08-23T13:05:46.502Z,16.95
2022-08-23T13:08:34.812Z,15.32
2022-08-23T13:11:08.037Z,14.07
2022-08-23T13:13:39.152Z,13.63
2022-08-23T13:16:41.215Z,15.02
2022-08-23T13:19:23.658Z,16.05
2022-08-23T13:22:29.643Z,14.48
2022-08-23T13:28:01.010Z,15.80
2022-08-23T13:30:39.275Z,15.90
2022-08-23T13:33:25.959Z,16.33
2022-08-23T13:36:13.800Z,16.55
2022-08-23T13:38:43.512Z,15.85
2022-08-23T13:41:31.692Z,16.33
2022-08-23T13:43:59.270Z,17.08
2022-08-23T13:46:34.409Z,17.63
2022-08-23T13:49:15.726Z,16.63
2022-08-23T13:52:33.430Z,16.90
2022-08-23T13:54:52.975Z,21.77
2022-08-23T13:57:30.358Z,19.65
2022-08-23T14:00:08.047Z,16.60
2022-08-23T14:02:37.750Z,15.88
2022-08-23T14:05:09.537Z,15.68
2022-08-23T14:07:46.421Z,16.65
2022-08-23T14:10:18.430Z,19.67
2022-08-23T14:12:56.141Z,17.83
2022-08-23T14:18:22.369Z,18.15
2022-08-23T14:20:51.208Z,17.48
2022-08-23T14:23:19.339Z,19.73
2022-08-23T14:25:47.596Z,17.23
2022-08-23T14:28:30.469Z,18.48
2022-08-23T14:31:00.740Z,17.17
2022-08-23T14:33:29.056Z,18.00
2022-08-23T14:35:57.628Z,19.77
2022-08-23T14:38:31.062Z,19.33
2022-08-23T14:41:03.739Z,20.23
2022-08-23T14:43:41.138Z,19.48
2022-08-23T14:46:09.239Z,24.85
2022-08-23T14:48:43.570Z,26.20
2022-08-23T14:51:30.522Z,25.33
2022-08-23T14:53:59.907Z,24.92
2022-08-23T14:56:28.684Z,22.98
2022-08-23T14:58:59.051Z,20.67
2022-08-23T15:01:27.564Z,29.60
2022-08-23T15:04:05.834Z,33.10
2022-08-23T15:06:34.096Z,32.33
2022-08-23T15:09:15.915Z,37.42
2022-08-23T15:14:44.705Z,36.33
2022-08-23T15:17:11.683Z,40.75
2022-08-23T15:19:39.984Z,38.03
2022-08-23T15:22:15.816Z,39.15
2022-08-23T15:24:48.795Z,37.58
2022-08-23T15:27:19.474Z,33.97
2022-08-23T15:29:46.743Z,34.30
2022-08-23T15:32:13.961Z,35.05
2022-08-23T15:34:48.140Z,31.55
2022-08-23T15:37:20.632Z,30.83
2022-08-23T15:39:53.909Z,29.20
2022-08-23T15:42:24.182Z,30.65
2022-08-23T15:44:52.337Z,29.65
2022-08-23T15:47:29.928Z,28.40
2022-08-23T15:49:59.500Z,26.83
2022-08-23T15:52:29.692Z,28.25
2022-08-23T15:54:59.877Z,25.75
2022-08-23T15:57:43.157Z,22.80
2022-08-23T16:00:13.040Z,22.20
2022-08-23T16:03:04.239Z,23.08
2022-08-23T16:05:29.108Z,25.00
2022-08-23T16:08:07.372Z,22.83
2022-08-23T16:10:39.275Z,21.83
2022-08-23T16:13:08.329Z,22.92
2022-08-23T16:15:38.941Z,22.90
2022-08-23T16:18:08.352Z,23.15
2022-08-23T16:20:35.554Z,22.73
2022-08-23T16:23:19.841Z,27.30
2022-08-23T16:25:47.127Z,28.13
2022-08-23T16:28:15.422Z,30.10
2022-08-23T16:30:43.854Z,29.33
2022-08-23T16:33:11.190Z,33.60
2022-08-23T16:35:48.418Z,35.33
2022-08-23T16:38:23.362Z,35.78
2022-08-23T16:40:50.399Z,38.70
2022-08-23T16:43:18.553Z,33.72
2022-08-23T16:45:45.696Z,36.03
2022-08-23T16:48:15.061Z,38.17
2022-08-23T16:50:50.169Z,34.70
2022-08-23T16:53:18.875Z,33.10
2022-08-23T16:55:52.836Z,35.35
2022-08-23T16:58:21.856Z,36.60
2022-08-23T17:00:50.757Z,37.05
2022-08-23T17:03:24.149Z,38.92
2022-08-23T17:05:51.314Z,37.03
2022-08-23T17:08:20.634Z,36.97
2022-08-23T17:10:49.290Z,33.60
2022-08-23T17:13:19.053Z,32.05
2022-08-23T17:15:48.096Z,31.17
2022-08-23T17:18:23.303Z,31.77
2022-08-23T17:20:50.836Z,26.83
2022-08-23T17:23:52.255Z,24.70
2022-08-23T17:26:20.760Z,29.23
2022-08-23T17:28:56.891Z,22.25
2022-08-23T17:31:27.267Z,27.83
2022-08-23T17:34:04.221Z,25.27
2022-08-23T17:36:38.734Z,25.73
2022-08-23T17:39:13.448Z,24.08
2022-08-23T17:41:45.199Z,23.65
2022-08-23T17:44:13.311Z,23.73
2022-08-23T17:46:43.991Z,24.48
2022-08-23T17:49:12.176Z,25.17
2022-08-23T17:51:41.471Z,24.27
2022-08-23T17:54:16.440Z,25.20
2022-08-23T17:56:50.417Z,27.38
2022-08-23T17:59:23.678Z,28.13
2022-08-23T18:01:52.371Z,28.00
2022-08-23T18:04:20.504Z,30.10
2022-08-23T18:06:53.687Z,30.42
2022-08-23T18:09:20.784Z,29.50
2022-08-23T18:11:56.048Z,31.00
2022-08-23T18:14:25.355Z,31.65
2022-08-23T18:17:00.437Z,31.60
2022-08-23T18:19:30.975Z,34.17
2022-08-23T18:22:21.908Z,37.65
2022-08-23T18:24:49.522Z,35.20
2022-08-23T18:28:06.989Z,38.88
2022-08-23T18:30:49.870Z,38.45
2022-08-23T18:33:20.550Z,35.60
2022-08-23T18:35:53.923Z,36.45
2022-08-23T18:38:22.233Z,37.88
2022-08-23T18:40:56.421Z,38.30
2022-08-23T18:43:34.813Z,38.28
2022-08-23T18:46:20.195Z,40.50
2022-08-23T18:48:53.433Z,42.72
2022-08-23T18:51:27.983Z,41.60
2022-08-23T18:53:56.577Z,44.25
2022-08-23T18:56:24.715Z,41.47
2022-08-23T18:59:01.172Z,41.58
2022-08-23T19:01:37.140Z,44.30
2022-08-23T19:04:06.783Z,44.78
2022-08-23T19:06:34.937Z,43.45
2022-08-23T19:09:02.379Z,42.65
2022-08-23T19:11:30.202Z,42.03
2022-08-23T19:14:01.605Z,45.63
2022-08-23T19:16:45.659Z,47.92
2022-08-23T19:19:28.822Z,43.40
2022-08-23T19:21:59.133Z,45.88
2022-08-23T19:24:28.134Z,47.05
2022-08-23T19:26:55.668Z,49.15
2022-08-23T19:29:25.313Z,48.35
2022-08-23T19:31:54.932Z,55.22
2022-08-23T19:34:29.004Z,59.75
2022-08-23T19:37:03.998Z,54.15
2022-08-23T19:39:37.307Z,56.88
2022-08-23T19:42:11.051Z,62.92
2022-08-23T19:44:39.967Z,62.88
2022-08-23T19:47:08.015Z,61.88
2022-08-23T19:49:55.988Z,71.20
2022-08-23T19:52:31.809Z,62.38
2022-08-23T19:55:03.002Z,68.03
2022-08-23T19:57:58.904Z,64.43
2022-08-23T20:00:35.324Z,65.80
2022-08-23T20:03:04.811Z,67.40
2022-08-23T20:05:33.907Z,69.43
2022-08-23T20:08:08.197Z,70.07
2022-08-23T20:10:45.076Z,71.32
2022-08-23T20:13:42.320Z,75.00
2022-08-23T20:16:12.183Z,79.68
2022-08-23T20:18:53.152Z,83.15
2022-08-23T20:21:27.338Z,86.35
2022-08-23T20:24:01.690Z,77.55
2022-08-23T20:26:31.839Z,86.20
2022-08-23T20:29:22.054Z,75.18
2022-08-23T20:32:09.220Z,84.18
2022-08-23T20:34:38.291Z,87.10
2022-08-23T20:37:06.625Z,88.32
2022-08-23T20:39:56.710Z,102.75
2022-08-23T20:42:34.148Z,90.60
2022-08-23T20:45:05.946Z,93.57
2022-08-23T20:47:41.467Z,91.45
2022-08-23T20:50:15.978Z,80.85
2022-08-23T20:52:45.114Z,95.00
2022-08-23T20:55:17.977Z,98.72
2022-08-23T20:57:51.095Z,84.28
2022-08-23T21:00:23.272Z,90.85
2022-08-23T21:02:56.620Z,90.45
2022-08-23T21:05:33.671Z,87.55
2022-08-23T21:08:30.902Z,101.43
2022-08-23T21:11:28.699Z,103.25
2022-08-23T21:14:05.116Z,99.20
2022-08-23T21:16:33.514Z,100.40
2022-08-23T21:19:09.803Z,89.20
2022-08-23T21:21:42.928Z,105.55
2022-08-23T21:24:12.023Z,103.70
2022-08-23T21:26:42.120Z,99.05
2022-08-23T21:29:10.901Z,96.38
2022-08-23T21:31:39.966Z,91.18
2022-08-23T21:34:14.660Z,103.65
2022-08-23T21:36:47.833Z,107.30
2022-08-23T21:39:30.762Z,101.18
2022-08-23T21:42:27.065Z,99.57
2022-08-23T21:45:07.341Z,89.25
2022-08-23T21:47:39.973Z,97.47
2022-08-23T21:50:08.546Z,98.07
2022-08-23T21:53:03.887Z,102.63
2022-08-23T21:55:40.366Z,101.00
2022-08-23T21:58:15.496Z,98.47
2022-08-23T22:00:49.415Z,97.97
2022-08-23T22:03:22.513Z,115.40
2022-08-23T22:05:50.382Z,99.47
2022-08-23T22:08:18.718Z,113.55
2022-08-23T22:10:57.363Z,110.22
2022-08-23T22:13:26.535Z,113.20
2022-08-23T22:15:55.036Z,118.57
2022-08-23T22:18:22.184Z,140.15
2022-08-23T22:20:49.216Z,140.02
2022-08-23T22:23:17.604Z,134.25
2022-08-23T22:25:44.837Z,136.48
2022-08-23T22:28:13.102Z,137.63
2022-08-23T22:30:42.993Z,140.90
2022-08-23T22:33:14.297Z,137.50
2022-08-23T22:35:49.063Z,149.02
2022-08-23T22:38:23.281Z,158.82
2022-08-23T22:41:03.452Z,157.15
2022-08-23T22:43:36.990Z,141.55
2022-08-23T22:46:06.385Z,201.38
2022-08-23T22:48:37.410Z,146.00
2022-08-23T22:51:09.531Z,223.63
2022-08-23T22:53:38.957Z,183.30
2022-08-23T22:56:07.166Z,241.82
2022-08-23T22:58:35.306Z,158.23
2022-08-23T23:01:05.716Z,230.90
2022-08-23T23:03:42.137Z,216.73
2022-08-23T23:06:09.840Z,158.55
2022-08-23T23:08:37.438Z,234.82
2022-08-23T23:11:11.260Z,198.05
2022-08-23T23:16:17.316Z,212.07
2022-08-23T23:19:04.646Z,268.60
2022-08-23T23:21:36.928Z,299.95
2022-08-23T23:24:05.620Z,263.75
2022-08-23T23:26:32.702Z,331.20
2022-08-23T23:29:01.221Z,202.02
2022-08-23T23:31:30.400Z,162.90
2022-08-23T23:33:57.662Z,226.63
2022-08-23T23:36:41.589Z,225.63
2022-08-23T23:39:11.227Z,277.40
2022-08-23T23:41:44.546Z,176.07
2022-08-23T23:44:29.188Z,251.18
2022-08-23T23:47:04.167Z,264.73
2022-08-23T23:49:33.949Z,249.15
2022-08-23T23:52:07.636Z,302.55
2022-08-23T23:54:41.731Z,240.98
2022-08-23T23:57:09.759Z,221.32
2022-08-23T23:59:51.047Z,242.25
